sensor_id;sensor_type;location;lat;lon;timestamp;temperature;humidity
60242;SHT30;46103;52.076;113.488;2023-12-28T00:02:50;-13.83;59.94
60242;SHT30;46103;52.076;113.488;2023-12-28T00:05:58;-13.83;60.12
60242;SHT30;46103;52.076;113.488;2023-12-28T00:09:11;-13.78;60.15
60242;SHT30;46103;52.076;113.488;2023-12-28T00:12:18;-13.75;59.87
60242;SHT30;46103;52.076;113.488;2023-12-28T00:15:27;-13.77;59.66
60242;SHT30;46103;52.076;113.488;2023-12-28T00:18:33;-13.77;59.63
60242;SHT30;46103;52.076;113.488;2023-12-28T00:21:39;-13.72;59.79
60242;SHT30;46103;52.076;113.488;2023-12-28T00:24:45;-13.72;59.96
60242;SHT30;46103;52.076;113.488;2023-12-28T00:28:05;-13.75;60.08
60242;SHT30;46103;52.076;113.488;2023-12-28T00:31:11;-13.77;59.97
60242;SHT30;46103;52.076;113.488;2023-12-28T00:34:19;-13.79;59.90
60242;SHT30;46103;52.076;113.488;2023-12-28T00:37:30;-13.72;59.92
60242;SHT30;46103;52.076;113.488;2023-12-28T00:40:43;-13.72;60.46
60242;SHT30;46103;52.076;113.488;2023-12-28T00:43:51;-13.70;60.83
60242;SHT30;46103;52.076;113.488;2023-12-28T00:47:03;-13.63;61.03
60242;SHT30;46103;52.076;113.488;2023-12-28T00:50:14;-13.54;60.97
60242;SHT30;46103;52.076;113.488;2023-12-28T00:53:20;-13.46;61.05
60242;SHT30;46103;52.076;113.488;2023-12-28T00:56:31;-13.37;60.47
60242;SHT30;46103;52.076;113.488;2023-12-28T00:59:42;-13.34;60.18
60242;SHT30;46103;52.076;113.488;2023-12-28T01:03:03;-13.27;60.03
60242;SHT30;46103;52.076;113.488;2023-12-28T01:06:09;-13.23;59.53
60242;SHT30;46103;52.076;113.488;2023-12-28T01:09:27;-13.25;59.14
60242;SHT30;46103;52.076;113.488;2023-12-28T01:12:36;-13.25;59.06
60242;SHT30;46103;52.076;113.488;2023-12-28T01:15:42;-13.18;58.94
60242;SHT30;46103;52.076;113.488;2023-12-28T01:19:05;-13.16;58.74
60242;SHT30;46103;52.076;113.488;2023-12-28T01:22:12;-13.23;58.57
60242;SHT30;46103;52.076;113.488;2023-12-28T01:25:18;-13.15;59.15
60242;SHT30;46103;52.076;113.488;2023-12-28T01:28:25;-13.06;59.03
60242;SHT30;46103;52.076;113.488;2023-12-28T01:31:33;-13.12;58.75
60242;SHT30;46103;52.076;113.488;2023-12-28T02:55:29;-11.21;58.50
60242;SHT30;46103;52.076;113.488;2023-12-28T03:10:42;-10.66;58.81
60242;SHT30;46103;52.076;113.488;2023-12-28T03:15:47;-10.45;58.96
60242;SHT30;46103;52.076;113.488;2023-12-28T03:25:17;-9.97;57.96
60242;SHT30;46103;52.076;113.488;2023-12-28T03:30:04;-9.85;57.37
60242;SHT30;46103;52.076;113.488;2023-12-28T03:34:55;-9.95;57.33
60242;SHT30;46103;52.076;113.488;2023-12-28T03:43:57;-10.07;56.87
60242;SHT30;46103;52.076;113.488;2023-12-28T03:47:45;-9.99;56.48
60242;SHT30;46103;52.076;113.488;2023-12-28T03:51:56;-10.09;56.04
60242;SHT30;46103;52.076;113.488;2023-12-28T03:56:38;-10.09;57.10
60242;SHT30;46103;52.076;113.488;2023-12-28T04:00:44;-9.98;57.13
60242;SHT30;46103;52.076;113.488;2023-12-28T04:03:59;-9.95;56.91
60242;SHT30;46103;52.076;113.488;2023-12-28T04:07:33;-10.07;57.36
60242;SHT30;46103;52.076;113.488;2023-12-28T04:11:36;-10.24;56.52
60242;SHT30;46103;52.076;113.488;2023-12-28T04:14:58;-10.08;63.16
60242;SHT30;46103;52.076;113.488;2023-12-28T04:18:20;-9.85;58.98
60242;SHT30;46103;52.076;113.488;2023-12-28T04:22:05;-9.54;61.97
60242;SHT30;46103;52.076;113.488;2023-12-28T04:25:33;-9.33;60.29
60242;SHT30;46103;52.076;113.488;2023-12-28T04:28:57;-9.28;58.69
60242;SHT30;46103;52.076;113.488;2023-12-28T04:32:34;-9.05;56.87
60242;SHT30;46103;52.076;113.488;2023-12-28T04:35:43;-8.98;56.05
60242;SHT30;46103;52.076;113.488;2023-12-28T04:39:23;-8.97;55.62
60242;SHT30;46103;52.076;113.488;2023-12-28T04:42:59;-8.87;55.41
60242;SHT30;46103;52.076;113.488;2023-12-28T04:46:39;-9.33;54.77
60242;SHT30;46103;52.076;113.488;2023-12-28T04:50:29;-9.56;58.06
60242;SHT30;46103;52.076;113.488;2023-12-28T04:54:43;-9.39;59.92
60242;SHT30;46103;52.076;113.488;2023-12-28T04:58:03;-9.18;57.93
60242;SHT30;46103;52.076;113.488;2023-12-28T05:02:12;-9.12;59.78
60242;SHT30;46103;52.076;113.488;2023-12-28T05:05:40;-8.67;64.37
60242;SHT30;46103;52.076;113.488;2023-12-28T05:09:32;-8.24;64.01
60242;SHT30;46103;52.076;113.488;2023-12-28T05:13:41;-7.61;70.36
60242;SHT30;46103;52.076;113.488;2023-12-28T05:18:04;-7.29;64.66
60242;SHT30;46103;52.076;113.488;2023-12-28T05:22:42;-6.93;62.96
60242;SHT30;46103;52.076;113.488;2023-12-28T05:27:13;-6.74;64.31
60242;SHT30;46103;52.076;113.488;2023-12-28T05:32:01;-6.98;57.36
60242;SHT30;46103;52.076;113.488;2023-12-28T05:36:31;-6.98;61.16
60242;SHT30;46103;52.076;113.488;2023-12-28T05:41:09;-7.21;60.61
60242;SHT30;46103;52.076;113.488;2023-12-28T05:49:55;-7.21;59.85
60242;SHT30;46103;52.076;113.488;2023-12-28T05:54:04;-7.32;62.62
60242;SHT30;46103;52.076;113.488;2023-12-28T06:12:06;-6.80;60.49
60242;SHT30;46103;52.076;113.488;2023-12-28T09:20:23;-6.94;68.75
60242;SHT30;46103;52.076;113.488;2023-12-28T13:24:58;-9.52;82.08
60242;SHT30;46103;52.076;113.488;2023-12-28T13:28:04;-9.39;81.34
60242;SHT30;46103;52.076;113.488;2023-12-28T13:31:10;-9.49;77.00
60242;SHT30;46103;52.076;113.488;2023-12-28T13:34:18;-9.93;69.24
60242;SHT30;46103;52.076;113.488;2023-12-28T13:37:30;-10.39;67.07
60242;SHT30;46103;52.076;113.488;2023-12-28T13:40:57;-10.63;68.20
60242;SHT30;46103;52.076;113.488;2023-12-28T13:44:03;-10.92;70.42
60242;SHT30;46103;52.076;113.488;2023-12-28T13:47:18;-10.98;72.52
60242;SHT30;46103;52.076;113.488;2023-12-28T13:51:00;-11.12;69.99
60242;SHT30;46103;52.076;113.488;2023-12-28T13:54:44;-11.19;72.09
60242;SHT30;46103;52.076;113.488;2023-12-28T14:18:32;-12.01;71.88
60242;SHT30;46103;52.076;113.488;2023-12-28T14:22:13;-11.87;75.49
60242;SHT30;46103;52.076;113.488;2023-12-28T14:25:23;-11.75;77.87
60242;SHT30;46103;52.076;113.488;2023-12-28T14:28:29;-11.26;81.96
60242;SHT30;46103;52.076;113.488;2023-12-28T14:31:42;-11.01;82.59
60242;SHT30;46103;52.076;113.488;2023-12-28T14:35:11;-10.75;82.83
60242;SHT30;46103;52.076;113.488;2023-12-28T14:38:15;-10.66;81.86
60242;SHT30;46103;52.076;113.488;2023-12-28T14:41:41;-10.67;80.70
60242;SHT30;46103;52.076;113.488;2023-12-28T14:44:59;-10.71;79.32
60242;SHT30;46103;52.076;113.488;2023-12-28T14:48:25;-10.80;78.14
60242;SHT30;46103;52.076;113.488;2023-12-28T14:51:37;-10.83;77.74
60242;SHT30;46103;52.076;113.488;2023-12-28T14:55:02;-10.89;77.05
60242;SHT30;46103;52.076;113.488;2023-12-28T14:58:26;-10.67;80.20
60242;SHT30;46103;52.076;113.488;2023-12-28T15:01:55;-10.67;79.81
60242;SHT30;46103;52.076;113.488;2023-12-28T15:05:08;-10.84;77.16
60242;SHT30;46103;52.076;113.488;2023-12-28T15:08:17;-10.97;76.39
60242;SHT30;46103;52.076;113.488;2023-12-28T15:11:33;-10.84;78.94
60242;SHT30;46103;52.076;113.488;2023-12-28T15:14:53;-10.89;78.25
60242;SHT30;46103;52.076;113.488;2023-12-28T15:18:06;-11.10;74.28
60242;SHT30;46103;52.076;113.488;2023-12-28T15:21:30;-11.00;77.30
60242;SHT30;46103;52.076;113.488;2023-12-28T15:24:41;-11.26;72.43
60242;SHT30;46103;52.076;113.488;2023-12-28T15:27:49;-11.28;75.90
60242;SHT30;46103;52.076;113.488;2023-12-28T15:31:20;-11.70;69.02
60242;SHT30;46103;52.076;113.488;2023-12-28T15:35:12;-12.22;64.03
60242;SHT30;46103;52.076;113.488;2023-12-28T15:38:46;-12.08;75.25
60242;SHT30;46103;52.076;113.488;2023-12-28T15:42:24;-12.43;68.71
60242;SHT30;46103;52.076;113.488;2023-12-28T15:45:30;-12.68;65.39
60242;SHT30;46103;52.076;113.488;2023-12-28T15:49:06;-13.02;64.40
60242;SHT30;46103;52.076;113.488;2023-12-28T15:52:23;-13.22;67.17
60242;SHT30;46103;52.076;113.488;2023-12-28T15:55:43;-13.25;68.52
60242;SHT30;46103;52.076;113.488;2023-12-28T15:59:14;-13.48;65.08
60242;SHT30;46103;52.076;113.488;2023-12-28T16:02:24;-13.57;67.22
60242;SHT30;46103;52.076;113.488;2023-12-28T16:05:31;-13.67;68.18
60242;SHT30;46103;52.076;113.488;2023-12-28T16:08:40;-13.75;67.45
60242;SHT30;46103;52.076;113.488;2023-12-28T16:11:58;-13.89;67.49
60242;SHT30;46103;52.076;113.488;2023-12-28T16:15:07;-13.89;67.86
60242;SHT30;46103;52.076;113.488;2023-12-28T16:18:15;-13.91;67.74
60242;SHT30;46103;52.076;113.488;2023-12-28T16:21:21;-13.82;67.54
60242;SHT30;46103;52.076;113.488;2023-12-28T16:24:28;-13.85;66.74
60242;SHT30;46103;52.076;113.488;2023-12-28T16:27:33;-13.85;66.75
60242;SHT30;46103;52.076;113.488;2023-12-28T16:30:40;-13.93;66.89
60242;SHT30;46103;52.076;113.488;2023-12-28T16:33:47;-13.86;70.35
60242;SHT30;46103;52.076;113.488;2023-12-28T16:36:53;-13.85;69.55
60242;SHT30;46103;52.076;113.488;2023-12-28T16:39:58;-13.79;71.32
60242;SHT30;46103;52.076;113.488;2023-12-28T16:43:05;-13.78;74.05
60242;SHT30;46103;52.076;113.488;2023-12-28T16:46:11;-13.74;74.18
60242;SHT30;46103;52.076;113.488;2023-12-28T16:49:17;-13.79;72.38
60242;SHT30;46103;52.076;113.488;2023-12-28T16:52:23;-13.74;73.32
60242;SHT30;46103;52.076;113.488;2023-12-28T16:55:30;-13.72;72.46
60242;SHT30;46103;52.076;113.488;2023-12-28T16:58:35;-13.68;74.87
60242;SHT30;46103;52.076;113.488;2023-12-28T17:01:41;-13.63;74.90
60242;SHT30;46103;52.076;113.488;2023-12-28T17:04:49;-13.67;73.88
60242;SHT30;46103;52.076;113.488;2023-12-28T17:07:56;-13.82;71.75
60242;SHT30;46103;52.076;113.488;2023-12-28T17:11:02;-13.82;70.38
60242;SHT30;46103;52.076;113.488;2023-12-28T17:14:09;-13.79;72.28
60242;SHT30;46103;52.076;113.488;2023-12-28T17:17:15;-13.70;73.60
60242;SHT30;46103;52.076;113.488;2023-12-28T17:20:22;-13.83;70.58
60242;SHT30;46103;52.076;113.488;2023-12-28T17:23:38;-14.05;67.66
60242;SHT30;46103;52.076;113.488;2023-12-28T17:26:51;-14.13;69.32
60242;SHT30;46103;52.076;113.488;2023-12-28T17:30:01;-14.25;70.35
60242;SHT30;46103;52.076;113.488;2023-12-28T17:33:07;-14.33;69.74
60242;SHT30;46103;52.076;113.488;2023-12-28T17:36:14;-14.40;67.72
60242;SHT30;46103;52.076;113.488;2023-12-28T17:39:21;-14.51;67.35
60242;SHT30;46103;52.076;113.488;2023-12-28T17:42:29;-14.61;68.09
60242;SHT30;46103;52.076;113.488;2023-12-28T17:48:52;-14.63;70.48
60242;SHT30;46103;52.076;113.488;2023-12-28T17:52:00;-14.61;72.32
60242;SHT30;46103;52.076;113.488;2023-12-28T17:55:07;-14.61;73.03
60242;SHT30;46103;52.076;113.488;2023-12-28T17:58:14;-14.65;71.53
60242;SHT30;46103;52.076;113.488;2023-12-28T18:01:20;-14.74;70.97
60242;SHT30;46103;52.076;113.488;2023-12-28T18:04:26;-14.79;71.45
60242;SHT30;46103;52.076;113.488;2023-12-28T18:07:32;-14.86;72.17
60242;SHT30;46103;52.076;113.488;2023-12-28T18:10:39;-14.84;71.59
60242;SHT30;46103;52.076;113.488;2023-12-28T18:13:44;-14.84;70.91
60242;SHT30;46103;52.076;113.488;2023-12-28T18:16:50;-14.77;69.76
60242;SHT30;46103;52.076;113.488;2023-12-28T18:19:56;-14.72;69.93
60242;SHT30;46103;52.076;113.488;2023-12-28T18:23:02;-14.74;71.42
60242;SHT30;46103;52.076;113.488;2023-12-28T18:26:09;-14.75;72.01
60242;SHT30;46103;52.076;113.488;2023-12-28T18:29:15;-14.79;71.41
60242;SHT30;46103;52.076;113.488;2023-12-28T18:32:22;-14.78;73.46
60242;SHT30;46103;52.076;113.488;2023-12-28T18:35:27;-14.85;73.95
60242;SHT30;46103;52.076;113.488;2023-12-28T18:38:33;-14.79;74.61
60242;SHT30;46103;52.076;113.488;2023-12-28T18:41:39;-14.78;74.65
60242;SHT30;46103;52.076;113.488;2023-12-28T18:44:45;-14.77;74.06
60242;SHT30;46103;52.076;113.488;2023-12-28T18:47:51;-14.75;74.50
60242;SHT30;46103;52.076;113.488;2023-12-28T18:50:56;-14.75;74.42
60242;SHT30;46103;52.076;113.488;2023-12-28T18:54:03;-14.75;75.04
60242;SHT30;46103;52.076;113.488;2023-12-28T18:57:09;-14.84;74.05
60242;SHT30;46103;52.076;113.488;2023-12-28T19:00:15;-14.88;74.17
60242;SHT30;46103;52.076;113.488;2023-12-28T19:03:21;-14.91;72.18
60242;SHT30;46103;52.076;113.488;2023-12-28T19:06:28;-14.99;69.47
60242;SHT30;46103;52.076;113.488;2023-12-28T19:09:36;-15.07;67.61
60242;SHT30;46103;52.076;113.488;2023-12-28T19:12:41;-15.22;65.86
60242;SHT30;46103;52.076;113.488;2023-12-28T19:15:47;-15.24;67.01
60242;SHT30;46103;52.076;113.488;2023-12-28T19:18:52;-15.22;68.67
60242;SHT30;46103;52.076;113.488;2023-12-28T19:21:59;-15.23;71.65
60242;SHT30;46103;52.076;113.488;2023-12-28T19:25:06;-15.23;73.60
60242;SHT30;46103;52.076;113.488;2023-12-28T19:28:13;-15.19;74.21
60242;SHT30;46103;52.076;113.488;2023-12-28T19:31:19;-15.17;74.17
60242;SHT30;46103;52.076;113.488;2023-12-28T19:34:25;-15.19;74.37
60242;SHT30;46103;52.076;113.488;2023-12-28T19:37:32;-15.22;73.46
60242;SHT30;46103;52.076;113.488;2023-12-28T19:40:38;-15.20;74.46
60242;SHT30;46103;52.076;113.488;2023-12-28T19:43:44;-15.17;75.70
60242;SHT30;46103;52.076;113.488;2023-12-28T19:46:50;-15.22;75.82
60242;SHT30;46103;52.076;113.488;2023-12-28T19:49:56;-15.19;76.47
60242;SHT30;46103;52.076;113.488;2023-12-28T19:53:02;-15.19;77.69
60242;SHT30;46103;52.076;113.488;2023-12-28T19:56:10;-15.20;76.38
60242;SHT30;46103;52.076;113.488;2023-12-28T19:59:16;-15.22;75.53
60242;SHT30;46103;52.076;113.488;2023-12-28T20:02:22;-15.36;72.73
60242;SHT30;46103;52.076;113.488;2023-12-28T20:05:30;-15.41;70.24
60242;SHT30;46103;52.076;113.488;2023-12-28T20:08:36;-15.47;69.99
60242;SHT30;46103;52.076;113.488;2023-12-28T20:11:43;-15.41;70.55
60242;SHT30;46103;52.076;113.488;2023-12-28T20:14:49;-15.44;71.71
60242;SHT30;46103;52.076;113.488;2023-12-28T20:17:54;-15.37;72.00
60242;SHT30;46103;52.076;113.488;2023-12-28T20:21:00;-15.48;71.18
60242;SHT30;46103;52.076;113.488;2023-12-28T20:24:06;-15.47;70.72
60242;SHT30;46103;52.076;113.488;2023-12-28T20:27:15;-15.51;71.40
60242;SHT30;46103;52.076;113.488;2023-12-28T20:30:21;-15.48;71.42
60242;SHT30;46103;52.076;113.488;2023-12-28T20:33:27;-15.45;71.85
60242;SHT30;46103;52.076;113.488;2023-12-28T20:36:35;-15.51;69.62
60242;SHT30;46103;52.076;113.488;2023-12-28T20:39:42;-15.54;69.68
60242;SHT30;46103;52.076;113.488;2023-12-28T20:42:47;-15.47;72.92
60242;SHT30;46103;52.076;113.488;2023-12-28T20:45:53;-15.55;68.29
60242;SHT30;46103;52.076;113.488;2023-12-28T20:48:59;-15.71;66.00
60242;SHT30;46103;52.076;113.488;2023-12-28T20:52:06;-15.64;68.84
60242;SHT30;46103;52.076;113.488;2023-12-28T20:55:12;-15.58;71.01
60242;SHT30;46103;52.076;113.488;2023-12-28T20:58:19;-15.48;72.00
60242;SHT30;46103;52.076;113.488;2023-12-28T21:01:25;-15.54;72.27
60242;SHT30;46103;52.076;113.488;2023-12-28T21:04:31;-15.59;69.33
60242;SHT30;46103;52.076;113.488;2023-12-28T21:07:37;-15.62;68.35
60242;SHT30;46103;52.076;113.488;2023-12-28T21:10:44;-15.69;65.40
60242;SHT30;46103;52.076;113.488;2023-12-28T21:13:53;-15.81;68.60
60242;SHT30;46103;52.076;113.488;2023-12-28T21:17:07;-15.86;63.51
60242;SHT30;46103;52.076;113.488;2023-12-28T21:20:16;-15.83;64.76
60242;SHT30;46103;52.076;113.488;2023-12-28T21:23:24;-15.76;66.53
60242;SHT30;46103;52.076;113.488;2023-12-28T21:26:30;-15.61;70.90
60242;SHT30;46103;52.076;113.488;2023-12-28T21:29:37;-15.54;69.72
60242;SHT30;46103;52.076;113.488;2023-12-28T21:32:43;-15.51;65.67
60242;SHT30;46103;52.076;113.488;2023-12-28T21:35:50;-15.55;72.11
60242;SHT30;46103;52.076;113.488;2023-12-28T21:38:56;-15.53;73.32
60242;SHT30;46103;52.076;113.488;2023-12-28T21:42:03;-15.57;65.09
60242;SHT30;46103;52.076;113.488;2023-12-28T21:45:10;-15.61;63.02
60242;SHT30;46103;52.076;113.488;2023-12-28T21:48:16;-15.76;64.11
60242;SHT30;46103;52.076;113.488;2023-12-28T21:51:23;-15.75;66.76
60242;SHT30;46103;52.076;113.488;2023-12-28T21:54:29;-15.74;65.45
60242;SHT30;46103;52.076;113.488;2023-12-28T21:57:35;-15.65;66.64
60242;SHT30;46103;52.076;113.488;2023-12-28T22:00:41;-15.54;65.32
60242;SHT30;46103;52.076;113.488;2023-12-28T22:03:46;-15.51;62.63
60242;SHT30;46103;52.076;113.488;2023-12-28T22:06:53;-15.44;61.62
60242;SHT30;46103;52.076;113.488;2023-12-28T22:09:58;-15.45;60.48
60242;SHT30;46103;52.076;113.488;2023-12-28T22:13:05;-15.47;59.26
60242;SHT30;46103;52.076;113.488;2023-12-28T22:16:12;-15.50;60.09
60242;SHT30;46103;52.076;113.488;2023-12-28T22:19:18;-15.50;61.16
60242;SHT30;46103;52.076;113.488;2023-12-28T22:22:24;-15.57;59.85
60242;SHT30;46103;52.076;113.488;2023-12-28T22:25:31;-15.65;59.34
60242;SHT30;46103;52.076;113.488;2023-12-28T22:28:37;-15.71;60.29
60242;SHT30;46103;52.076;113.488;2023-12-28T22:31:43;-15.66;60.56
60242;SHT30;46103;52.076;113.488;2023-12-28T22:34:52;-15.68;58.70
60242;SHT30;46103;52.076;113.488;2023-12-28T22:37:58;-15.79;58.22
60242;SHT30;46103;52.076;113.488;2023-12-28T22:41:46;-15.87;59.94
60242;SHT30;46103;52.076;113.488;2023-12-28T22:45:21;-15.86;58.71
60242;SHT30;46103;52.076;113.488;2023-12-28T22:49:08;-15.89;60.62
60242;SHT30;46103;52.076;113.488;2023-12-28T22:52:36;-15.95;59.34
60242;SHT30;46103;52.076;113.488;2023-12-28T22:56:37;-15.95;59.92
60242;SHT30;46103;52.076;113.488;2023-12-28T23:00:03;-15.89;59.88
60242;SHT30;46103;52.076;113.488;2023-12-28T23:04:11;-15.86;60.18
60242;SHT30;46103;52.076;113.488;2023-12-28T23:08:07;-15.90;60.74
60242;SHT30;46103;52.076;113.488;2023-12-28T23:11:33;-15.89;61.20
60242;SHT30;46103;52.076;113.488;2023-12-28T23:14:59;-15.95;61.91
60242;SHT30;46103;52.076;113.488;2023-12-28T23:18:36;-15.96;62.37
60242;SHT30;46103;52.076;113.488;2023-12-28T23:22:25;-16.03;63.50
60242;SHT30;46103;52.076;113.488;2023-12-28T23:25:39;-16.13;64.91
60242;SHT30;46103;52.076;113.488;2023-12-28T23:29:10;-16.25;66.46
60242;SHT30;46103;52.076;113.488;2023-12-28T23:32:36;-16.41;68.16
60242;SHT30;46103;52.076;113.488;2023-12-28T23:39:58;-16.51;70.97
60242;SHT30;46103;52.076;113.488;2023-12-28T23:43:40;-16.49;71.08
60242;SHT30;46103;52.076;113.488;2023-12-28T23:47:11;-16.46;70.57
60242;SHT30;46103;52.076;113.488;2023-12-28T23:50:41;-16.44;70.21
60242;SHT30;46103;52.076;113.488;2023-12-28T23:54:00;-16.52;69.72
60242;SHT30;46103;52.076;113.488;2023-12-28T23:57:38;-16.46;69.96
